sensor_id;sensor_type;location;lat;lon;timestamp;P1;durP1;ratioP1;P2;durP2;ratioP2
64633;SDS011;51043;52.406;9.690;2023-07-31T00:01:22;6.07;;;3.20;;
64633;SDS011;51043;52.406;9.690;2023-07-31T00:03:50;5.10;;;3.17;;
64633;SDS011;51043;52.406;9.690;2023-07-31T00:06:23;5.33;;;2.60;;
64633;SDS011;51043;52.406;9.690;2023-07-31T00:08:51;5.50;;;3.37;;
64633;SDS011;51043;52.406;9.690;2023-07-31T00:11:19;5.47;;;2.83;;
64633;SDS011;51043;52.406;9.690;2023-07-31T00:13:48;5.67;;;2.70;;
64633;SDS011;51043;52.406;9.690;2023-07-31T00:16:17;7.33;;;2.90;;
64633;SDS011;51043;52.406;9.690;2023-07-31T00:18:45;5.87;;;2.80;;
64633;SDS011;51043;52.406;9.690;2023-07-31T00:21:13;7.73;;;3.20;;
64633;SDS011;51043;52.406;9.690;2023-07-31T00:23:42;5.30;;;2.90;;
64633;SDS011;51043;52.406;9.690;2023-07-31T00:26:11;7.33;;;3.20;;
64633;SDS011;51043;52.406;9.690;2023-07-31T00:28:39;4.45;;;2.85;;
64633;SDS011;51043;52.406;9.690;2023-07-31T00:31:07;9.17;;;3.40;;
64633;SDS011;51043;52.406;9.690;2023-07-31T00:33:35;9.07;;;3.13;;
64633;SDS011;51043;52.406;9.690;2023-07-31T00:36:04;7.47;;;3.08;;
64633;SDS011;51043;52.406;9.690;2023-07-31T00:38:32;6.30;;;3.13;;
64633;SDS011;51043;52.406;9.690;2023-07-31T00:41:02;5.20;;;3.20;;
64633;SDS011;51043;52.406;9.690;2023-07-31T00:43:30;6.73;;;3.10;;
64633;SDS011;51043;52.406;9.690;2023-07-31T00:46:00;6.53;;;3.00;;
64633;SDS011;51043;52.406;9.690;2023-07-31T00:48:28;9.23;;;3.60;;
64633;SDS011;51043;52.406;9.690;2023-07-31T00:50:58;6.17;;;3.00;;
64633;SDS011;51043;52.406;9.690;2023-07-31T00:53:27;6.87;;;3.13;;
64633;SDS011;51043;52.406;9.690;2023-07-31T00:55:55;9.30;;;2.87;;
64633;SDS011;51043;52.406;9.690;2023-07-31T00:58:26;7.87;;;3.20;;
64633;SDS011;51043;52.406;9.690;2023-07-31T01:00:54;6.77;;;3.03;;
64633;SDS011;51043;52.406;9.690;2023-07-31T01:03:21;4.10;;;2.77;;
64633;SDS011;51043;52.406;9.690;2023-07-31T01:05:53;5.07;;;2.87;;
64633;SDS011;51043;52.406;9.690;2023-07-31T01:08:36;6.87;;;2.90;;
64633;SDS011;51043;52.406;9.690;2023-07-31T01:11:16;6.43;;;2.83;;
64633;SDS011;51043;52.406;9.690;2023-07-31T01:13:49;8.67;;;3.00;;
64633;SDS011;51043;52.406;9.690;2023-07-31T01:16:18;5.97;;;3.00;;
64633;SDS011;51043;52.406;9.690;2023-07-31T01:18:46;5.60;;;2.70;;
64633;SDS011;51043;52.406;9.690;2023-07-31T01:21:22;5.27;;;2.47;;
64633;SDS011;51043;52.406;9.690;2023-07-31T01:24:27;10.23;;;2.50;;
64633;SDS011;51043;52.406;9.690;2023-07-31T01:27:01;6.57;;;2.80;;
64633;SDS011;51043;52.406;9.690;2023-07-31T01:29:35;4.77;;;2.73;;
64633;SDS011;51043;52.406;9.690;2023-07-31T01:32:10;6.60;;;2.87;;
64633;SDS011;51043;52.406;9.690;2023-07-31T01:34:39;5.17;;;2.50;;
64633;SDS011;51043;52.406;9.690;2023-07-31T01:37:09;5.00;;;2.83;;
64633;SDS011;51043;52.406;9.690;2023-07-31T01:39:37;10.00;;;2.60;;
64633;SDS011;51043;52.406;9.690;2023-07-31T01:42:06;4.97;;;2.70;;
64633;SDS011;51043;52.406;9.690;2023-07-31T01:44:35;4.13;;;2.33;;
64633;SDS011;51043;52.406;9.690;2023-07-31T01:47:04;7.37;;;2.70;;
64633;SDS011;51043;52.406;9.690;2023-07-31T01:49:40;5.90;;;2.10;;
64633;SDS011;51043;52.406;9.690;2023-07-31T01:52:08;4.13;;;2.30;;
64633;SDS011;51043;52.406;9.690;2023-07-31T01:54:36;4.27;;;2.17;;
64633;SDS011;51043;52.406;9.690;2023-07-31T01:57:04;7.20;;;2.50;;
64633;SDS011;51043;52.406;9.690;2023-07-31T01:59:36;4.13;;;2.20;;
64633;SDS011;51043;52.406;9.690;2023-07-31T02:02:05;4.47;;;2.27;;
64633;SDS011;51043;52.406;9.690;2023-07-31T02:04:38;4.60;;;2.20;;
64633;SDS011;51043;52.406;9.690;2023-07-31T02:07:11;4.33;;;2.20;;
64633;SDS011;51043;52.406;9.690;2023-07-31T02:09:39;6.27;;;2.10;;
64633;SDS011;51043;52.406;9.690;2023-07-31T02:12:10;5.90;;;2.10;;
64633;SDS011;51043;52.406;9.690;2023-07-31T02:14:38;3.73;;;2.20;;
64633;SDS011;51043;52.406;9.690;2023-07-31T02:17:08;8.70;;;2.07;;
64633;SDS011;51043;52.406;9.690;2023-07-31T02:19:36;3.93;;;2.07;;
64633;SDS011;51043;52.406;9.690;2023-07-31T02:22:04;3.07;;;2.10;;
64633;SDS011;51043;52.406;9.690;2023-07-31T02:24:35;6.00;;;2.03;;
64633;SDS011;51043;52.406;9.690;2023-07-31T02:27:03;5.23;;;2.13;;
64633;SDS011;51043;52.406;9.690;2023-07-31T02:29:33;3.40;;;1.83;;
64633;SDS011;51043;52.406;9.690;2023-07-31T02:32:02;2.83;;;1.90;;
64633;SDS011;51043;52.406;9.690;2023-07-31T02:34:30;4.37;;;1.80;;
64633;SDS011;51043;52.406;9.690;2023-07-31T02:36:58;3.00;;;1.93;;
64633;SDS011;51043;52.406;9.690;2023-07-31T02:39:28;3.90;;;1.90;;
64633;SDS011;51043;52.406;9.690;2023-07-31T02:41:56;4.67;;;2.00;;
64633;SDS011;51043;52.406;9.690;2023-07-31T02:44:24;2.57;;;1.70;;
64633;SDS011;51043;52.406;9.690;2023-07-31T02:46:56;3.03;;;1.90;;
64633;SDS011;51043;52.406;9.690;2023-07-31T02:49:24;16.37;;;2.30;;
64633;SDS011;51043;52.406;9.690;2023-07-31T02:51:53;2.87;;;1.63;;
64633;SDS011;51043;52.406;9.690;2023-07-31T02:54:24;6.03;;;1.70;;
64633;SDS011;51043;52.406;9.690;2023-07-31T02:56:52;4.13;;;1.95;;
64633;SDS011;51043;52.406;9.690;2023-07-31T02:59:20;5.07;;;2.13;;
64633;SDS011;51043;52.406;9.690;2023-07-31T03:01:49;4.73;;;1.90;;
64633;SDS011;51043;52.406;9.690;2023-07-31T03:04:18;3.40;;;2.00;;
64633;SDS011;51043;52.406;9.690;2023-07-31T03:06:47;3.10;;;1.70;;
64633;SDS011;51043;52.406;9.690;2023-07-31T03:09:15;3.23;;;1.60;;
64633;SDS011;51043;52.406;9.690;2023-07-31T03:11:43;3.20;;;1.87;;
64633;SDS011;51043;52.406;9.690;2023-07-31T03:14:11;1.70;;;1.60;;
64633;SDS011;51043;52.406;9.690;2023-07-31T03:16:41;3.53;;;1.90;;
64633;SDS011;51043;52.406;9.690;2023-07-31T03:19:09;7.13;;;1.97;;
64633;SDS011;51043;52.406;9.690;2023-07-31T03:21:40;3.40;;;1.60;;
64633;SDS011;51043;52.406;9.690;2023-07-31T03:24:08;1.60;;;1.50;;
64633;SDS011;51043;52.406;9.690;2023-07-31T03:26:38;2.37;;;1.50;;
64633;SDS011;51043;52.406;9.690;2023-07-31T03:29:07;2.10;;;1.70;;
64633;SDS011;51043;52.406;9.690;2023-07-31T03:31:35;2.57;;;1.60;;
64633;SDS011;51043;52.406;9.690;2023-07-31T03:34:03;1.73;;;1.60;;
64633;SDS011;51043;52.406;9.690;2023-07-31T03:36:32;5.73;;;1.60;;
64633;SDS011;51043;52.406;9.690;2023-07-31T03:39:01;3.10;;;1.77;;
64633;SDS011;51043;52.406;9.690;2023-07-31T03:41:29;1.83;;;1.60;;
64633;SDS011;51043;52.406;9.690;2023-07-31T03:43:57;6.70;;;2.00;;
64633;SDS011;51043;52.406;9.690;2023-07-31T03:46:26;3.07;;;1.67;;
64633;SDS011;51043;52.406;9.690;2023-07-31T03:48:54;4.60;;;1.70;;
64633;SDS011;51043;52.406;9.690;2023-07-31T03:51:23;4.93;;;1.90;;
64633;SDS011;51043;52.406;9.690;2023-07-31T03:53:51;5.50;;;2.30;;
64633;SDS011;51043;52.406;9.690;2023-07-31T03:56:21;3.95;;;1.90;;
64633;SDS011;51043;52.406;9.690;2023-07-31T03:58:49;1.60;;;1.50;;
64633;SDS011;51043;52.406;9.690;2023-07-31T04:01:17;6.13;;;1.80;;
64633;SDS011;51043;52.406;9.690;2023-07-31T04:03:46;3.67;;;2.00;;
64633;SDS011;51043;52.406;9.690;2023-07-31T04:06:15;2.43;;;1.70;;
64633;SDS011;51043;52.406;9.690;2023-07-31T04:08:44;2.10;;;1.60;;
64633;SDS011;51043;52.406;9.690;2023-07-31T04:11:12;3.53;;;1.80;;
64633;SDS011;51043;52.406;9.690;2023-07-31T04:13:42;2.77;;;1.70;;
64633;SDS011;51043;52.406;9.690;2023-07-31T04:16:11;3.53;;;1.90;;
64633;SDS011;51043;52.406;9.690;2023-07-31T04:18:39;4.20;;;2.10;;
64633;SDS011;51043;52.406;9.690;2023-07-31T04:21:07;4.20;;;2.00;;
64633;SDS011;51043;52.406;9.690;2023-07-31T04:23:36;2.97;;;1.70;;
64633;SDS011;51043;52.406;9.690;2023-07-31T04:26:04;3.03;;;1.93;;
64633;SDS011;51043;52.406;9.690;2023-07-31T04:28:38;2.13;;;1.67;;
64633;SDS011;51043;52.406;9.690;2023-07-31T04:31:08;4.70;;;1.83;;
64633;SDS011;51043;52.406;9.690;2023-07-31T04:33:36;3.47;;;1.90;;
64633;SDS011;51043;52.406;9.690;2023-07-31T04:36:04;3.23;;;1.80;;
64633;SDS011;51043;52.406;9.690;2023-07-31T04:38:32;4.37;;;1.73;;
64633;SDS011;51043;52.406;9.690;2023-07-31T04:41:00;5.10;;;1.77;;
64633;SDS011;51043;52.406;9.690;2023-07-31T04:43:34;2.53;;;1.70;;
64633;SDS011;51043;52.406;9.690;2023-07-31T04:46:02;1.70;;;1.60;;
64633;SDS011;51043;52.406;9.690;2023-07-31T04:48:31;3.03;;;2.17;;
64633;SDS011;51043;52.406;9.690;2023-07-31T04:50:59;3.03;;;1.70;;
64633;SDS011;51043;52.406;9.690;2023-07-31T04:53:27;2.57;;;1.60;;
64633;SDS011;51043;52.406;9.690;2023-07-31T04:55:58;3.30;;;2.07;;
64633;SDS011;51043;52.406;9.690;2023-07-31T04:58:26;4.73;;;1.80;;
64633;SDS011;51043;52.406;9.690;2023-07-31T05:00:55;2.23;;;1.80;;
64633;SDS011;51043;52.406;9.690;2023-07-31T05:03:23;2.60;;;1.80;;
64633;SDS011;51043;52.406;9.690;2023-07-31T05:05:53;2.37;;;1.80;;
64633;SDS011;51043;52.406;9.690;2023-07-31T05:08:21;3.80;;;1.50;;
64633;SDS011;51043;52.406;9.690;2023-07-31T05:10:50;1.90;;;1.60;;
64633;SDS011;51043;52.406;9.690;2023-07-31T05:13:18;1.60;;;1.50;;
64633;SDS011;51043;52.406;9.690;2023-07-31T05:15:46;2.03;;;1.50;;
64633;SDS011;51043;52.406;9.690;2023-07-31T05:18:15;3.70;;;1.60;;
64633;SDS011;51043;52.406;9.690;2023-07-31T05:20:44;3.17;;;1.40;;
64633;SDS011;51043;52.406;9.690;2023-07-31T05:23:13;2.40;;;1.50;;
64633;SDS011;51043;52.406;9.690;2023-07-31T05:25:41;1.30;;;1.20;;
64633;SDS011;51043;52.406;9.690;2023-07-31T05:28:09;2.77;;;1.40;;
64633;SDS011;51043;52.406;9.690;2023-07-31T05:30:39;2.00;;;1.43;;
64633;SDS011;51043;52.406;9.690;2023-07-31T05:33:07;2.30;;;1.60;;
64633;SDS011;51043;52.406;9.690;2023-07-31T05:35:36;3.07;;;1.60;;
64633;SDS011;51043;52.406;9.690;2023-07-31T05:38:04;2.10;;;1.80;;
64633;SDS011;51043;52.406;9.690;2023-07-31T05:40:34;5.30;;;2.50;;
64633;SDS011;51043;52.406;9.690;2023-07-31T05:43:02;5.67;;;2.57;;
64633;SDS011;51043;52.406;9.690;2023-07-31T05:45:32;4.97;;;2.40;;
64633;SDS011;51043;52.406;9.690;2023-07-31T05:48:01;4.47;;;3.10;;
64633;SDS011;51043;52.406;9.690;2023-07-31T05:50:29;5.30;;;3.27;;
64633;SDS011;51043;52.406;9.690;2023-07-31T05:52:58;5.37;;;3.80;;
64633;SDS011;51043;52.406;9.690;2023-07-31T05:55:27;9.43;;;4.23;;
64633;SDS011;51043;52.406;9.690;2023-07-31T05:57:56;7.87;;;4.60;;
64633;SDS011;51043;52.406;9.690;2023-07-31T06:00:26;11.93;;;5.77;;
64633;SDS011;51043;52.406;9.690;2023-07-31T06:02:54;7.97;;;5.67;;
64633;SDS011;51043;52.406;9.690;2023-07-31T06:05:23;10.03;;;6.30;;
64633;SDS011;51043;52.406;9.690;2023-07-31T06:07:52;10.27;;;7.37;;
64633;SDS011;51043;52.406;9.690;2023-07-31T06:10:20;15.47;;;8.03;;
64633;SDS011;51043;52.406;9.690;2023-07-31T06:12:49;13.30;;;8.40;;
64633;SDS011;51043;52.406;9.690;2023-07-31T06:15:19;15.70;;;8.33;;
64633;SDS011;51043;52.406;9.690;2023-07-31T06:17:47;11.43;;;7.40;;
64633;SDS011;51043;52.406;9.690;2023-07-31T06:20:15;13.53;;;7.93;;
64633;SDS011;51043;52.406;9.690;2023-07-31T06:22:43;12.93;;;7.57;;
64633;SDS011;51043;52.406;9.690;2023-07-31T06:25:14;14.17;;;8.60;;
64633;SDS011;51043;52.406;9.690;2023-07-31T06:27:42;13.30;;;7.97;;
64633;SDS011;51043;52.406;9.690;2023-07-31T06:30:11;19.77;;;8.87;;
64633;SDS011;51043;52.406;9.690;2023-07-31T06:32:41;13.10;;;8.17;;
64633;SDS011;51043;52.406;9.690;2023-07-31T06:35:09;14.50;;;8.20;;
64633;SDS011;51043;52.406;9.690;2023-07-31T06:37:37;15.43;;;8.53;;
64633;SDS011;51043;52.406;9.690;2023-07-31T06:40:07;11.73;;;7.13;;
64633;SDS011;51043;52.406;9.690;2023-07-31T06:42:36;13.33;;;7.63;;
64633;SDS011;51043;52.406;9.690;2023-07-31T06:45:04;12.60;;;8.20;;
64633;SDS011;51043;52.406;9.690;2023-07-31T06:47:33;13.47;;;8.23;;
64633;SDS011;51043;52.406;9.690;2023-07-31T06:50:03;16.90;;;9.53;;
64633;SDS011;51043;52.406;9.690;2023-07-31T06:52:32;15.67;;;7.90;;
64633;SDS011;51043;52.406;9.690;2023-07-31T06:55:01;14.43;;;8.10;;
64633;SDS011;51043;52.406;9.690;2023-07-31T06:57:30;17.33;;;9.07;;
64633;SDS011;51043;52.406;9.690;2023-07-31T07:00:00;21.50;;;9.50;;
64633;SDS011;51043;52.406;9.690;2023-07-31T07:02:30;17.83;;;9.37;;
64633;SDS011;51043;52.406;9.690;2023-07-31T07:04:59;19.93;;;9.77;;
64633;SDS011;51043;52.406;9.690;2023-07-31T07:07:28;21.43;;;9.77;;
64633;SDS011;51043;52.406;9.690;2023-07-31T07:09:57;18.93;;;9.30;;
64633;SDS011;51043;52.406;9.690;2023-07-31T07:12:30;27.50;;;11.10;;
64633;SDS011;51043;52.406;9.690;2023-07-31T07:15:02;19.83;;;10.33;;
64633;SDS011;51043;52.406;9.690;2023-07-31T07:17:37;19.20;;;10.00;;
64633;SDS011;51043;52.406;9.690;2023-07-31T07:20:05;20.70;;;9.37;;
64633;SDS011;51043;52.406;9.690;2023-07-31T07:22:38;24.20;;;10.90;;
64633;SDS011;51043;52.406;9.690;2023-07-31T07:25:09;21.03;;;10.50;;
64633;SDS011;51043;52.406;9.690;2023-07-31T07:27:37;29.00;;;11.63;;
64633;SDS011;51043;52.406;9.690;2023-07-31T07:30:10;22.67;;;10.23;;
64633;SDS011;51043;52.406;9.690;2023-07-31T07:32:38;20.40;;;10.30;;
64633;SDS011;51043;52.406;9.690;2023-07-31T07:35:10;15.07;;;7.40;;
64633;SDS011;51043;52.406;9.690;2023-07-31T07:37:40;24.30;;;10.10;;
64633;SDS011;51043;52.406;9.690;2023-07-31T07:40:08;23.97;;;10.60;;
64633;SDS011;51043;52.406;9.690;2023-07-31T07:42:37;26.33;;;10.50;;
64633;SDS011;51043;52.406;9.690;2023-07-31T07:45:05;19.33;;;8.83;;
64633;SDS011;51043;52.406;9.690;2023-07-31T07:47:37;17.77;;;8.68;;
64633;SDS011;51043;52.406;9.690;2023-07-31T07:50:06;17.58;;;8.73;;
64633;SDS011;51043;52.406;9.690;2023-07-31T07:52:35;20.43;;;8.20;;
64633;SDS011;51043;52.406;9.690;2023-07-31T07:55:05;14.48;;;8.05;;
64633;SDS011;51043;52.406;9.690;2023-07-31T07:57:34;14.13;;;7.50;;
64633;SDS011;51043;52.406;9.690;2023-07-31T08:00:02;12.73;;;6.30;;
64633;SDS011;51043;52.406;9.690;2023-07-31T08:02:39;11.85;;;6.65;;
64633;SDS011;51043;52.406;9.690;2023-07-31T08:05:07;14.13;;;7.25;;
64633;SDS011;51043;52.406;9.690;2023-07-31T08:07:36;13.85;;;7.07;;
64633;SDS011;51043;52.406;9.690;2023-07-31T08:10:06;16.23;;;6.93;;
64633;SDS011;51043;52.406;9.690;2023-07-31T08:12:34;16.55;;;6.88;;
64633;SDS011;51043;52.406;9.690;2023-07-31T08:15:03;12.75;;;5.88;;
64633;SDS011;51043;52.406;9.690;2023-07-31T08:17:31;12.90;;;6.07;;
64633;SDS011;51043;52.406;9.690;2023-07-31T08:20:02;11.25;;;5.57;;
64633;SDS011;51043;52.406;9.690;2023-07-31T08:22:31;14.30;;;5.63;;
64633;SDS011;51043;52.406;9.690;2023-07-31T08:25:02;13.15;;;6.32;;
64633;SDS011;51043;52.406;9.690;2023-07-31T08:27:36;12.80;;;5.53;;
64633;SDS011;51043;52.406;9.690;2023-07-31T08:30:04;15.00;;;6.30;;
64633;SDS011;51043;52.406;9.690;2023-07-31T08:32:33;13.80;;;5.43;;
64633;SDS011;51043;52.406;9.690;2023-07-31T08:35:02;14.30;;;5.40;;
64633;SDS011;51043;52.406;9.690;2023-07-31T08:37:31;12.40;;;5.60;;
64633;SDS011;51043;52.406;9.690;2023-07-31T08:39:59;12.52;;;5.75;;
64633;SDS011;51043;52.406;9.690;2023-07-31T08:42:28;11.43;;;5.82;;
64633;SDS011;51043;52.406;9.690;2023-07-31T08:44:58;8.18;;;4.85;;
64633;SDS011;51043;52.406;9.690;2023-07-31T08:47:30;9.90;;;5.45;;
64633;SDS011;51043;52.406;9.690;2023-07-31T08:49:58;14.18;;;5.25;;
64633;SDS011;51043;52.406;9.690;2023-07-31T08:52:28;9.27;;;4.85;;
64633;SDS011;51043;52.406;9.690;2023-07-31T08:54:56;12.55;;;5.45;;
64633;SDS011;51043;52.406;9.690;2023-07-31T08:57:28;15.25;;;5.47;;
64633;SDS011;51043;52.406;9.690;2023-07-31T08:59:58;8.75;;;4.25;;
64633;SDS011;51043;52.406;9.690;2023-07-31T09:02:29;12.35;;;5.78;;
64633;SDS011;51043;52.406;9.690;2023-07-31T09:05:02;9.30;;;4.72;;
64633;SDS011;51043;52.406;9.690;2023-07-31T09:07:34;9.65;;;4.90;;
64633;SDS011;51043;52.406;9.690;2023-07-31T09:10:03;9.93;;;5.03;;
64633;SDS011;51043;52.406;9.690;2023-07-31T09:12:32;11.95;;;4.63;;
64633;SDS011;51043;52.406;9.690;2023-07-31T09:15:05;10.30;;;5.28;;
64633;SDS011;51043;52.406;9.690;2023-07-31T09:17:36;9.15;;;5.03;;
64633;SDS011;51043;52.406;9.690;2023-07-31T09:20:13;10.10;;;4.28;;
64633;SDS011;51043;52.406;9.690;2023-07-31T09:22:42;8.65;;;4.30;;
64633;SDS011;51043;52.406;9.690;2023-07-31T09:25:15;6.72;;;4.10;;
64633;SDS011;51043;52.406;9.690;2023-07-31T09:27:48;9.25;;;4.40;;
64633;SDS011;51043;52.406;9.690;2023-07-31T09:30:18;12.00;;;4.68;;
64633;SDS011;51043;52.406;9.690;2023-07-31T09:32:47;6.90;;;4.05;;
64633;SDS011;51043;52.406;9.690;2023-07-31T09:35:20;5.53;;;3.45;;
64633;SDS011;51043;52.406;9.690;2023-07-31T09:37:50;6.93;;;3.72;;
64633;SDS011;51043;52.406;9.690;2023-07-31T09:40:25;5.22;;;3.47;;
64633;SDS011;51043;52.406;9.690;2023-07-31T09:42:58;7.65;;;3.55;;
64633;SDS011;51043;52.406;9.690;2023-07-31T09:45:29;8.40;;;3.67;;
64633;SDS011;51043;52.406;9.690;2023-07-31T09:48:07;6.30;;;3.60;;
64633;SDS011;51043;52.406;9.690;2023-07-31T09:50:37;4.55;;;2.97;;
64633;SDS011;51043;52.406;9.690;2023-07-31T09:53:05;5.70;;;3.40;;
64633;SDS011;51043;52.406;9.690;2023-07-31T09:55:34;7.93;;;3.55;;
64633;SDS011;51043;52.406;9.690;2023-07-31T09:58:04;5.50;;;3.10;;
64633;SDS011;51043;52.406;9.690;2023-07-31T10:00:35;8.75;;;3.08;;
64633;SDS011;51043;52.406;9.690;2023-07-31T10:03:04;5.43;;;2.50;;
64633;SDS011;51043;52.406;9.690;2023-07-31T10:05:34;4.70;;;2.05;;
64633;SDS011;51043;52.406;9.690;2023-07-31T10:08:03;3.75;;;2.15;;
64633;SDS011;51043;52.406;9.690;2023-07-31T10:10:33;5.35;;;1.98;;
64633;SDS011;51043;52.406;9.690;2023-07-31T10:13:03;2.67;;;2.15;;
64633;SDS011;51043;52.406;9.690;2023-07-31T10:15:34;3.42;;;1.90;;
64633;SDS011;51043;52.406;9.690;2023-07-31T10:18:04;2.67;;;2.00;;
64633;SDS011;51043;52.406;9.690;2023-07-31T10:20:34;2.15;;;1.80;;
64633;SDS011;51043;52.406;9.690;2023-07-31T10:23:06;2.42;;;1.80;;
64633;SDS011;51043;52.406;9.690;2023-07-31T10:25:41;4.78;;;1.90;;
64633;SDS011;51043;52.406;9.690;2023-07-31T10:28:11;5.40;;;2.00;;
64633;SDS011;51043;52.406;9.690;2023-07-31T10:30:41;3.25;;;1.92;;
64633;SDS011;51043;52.406;9.690;2023-07-31T10:33:10;3.55;;;1.70;;
64633;SDS011;51043;52.406;9.690;2023-07-31T10:35:39;2.05;;;1.70;;
64633;SDS011;51043;52.406;9.690;2023-07-31T10:38:10;3.08;;;1.98;;
64633;SDS011;51043;52.406;9.690;2023-07-31T10:40:39;4.05;;;1.80;;
64633;SDS011;51043;52.406;9.690;2023-07-31T10:43:07;2.72;;;1.80;;
64633;SDS011;51043;52.406;9.690;2023-07-31T10:45:38;3.92;;;2.22;;
64633;SDS011;51043;52.406;9.690;2023-07-31T10:48:12;2.63;;;1.80;;
64633;SDS011;51043;52.406;9.690;2023-07-31T10:50:46;1.67;;;1.58;;
64633;SDS011;51043;52.406;9.690;2023-07-31T10:53:24;4.13;;;1.83;;
64633;SDS011;51043;52.406;9.690;2023-07-31T10:55:53;3.63;;;1.90;;
64633;SDS011;51043;52.406;9.690;2023-07-31T10:58:25;5.55;;;1.90;;
64633;SDS011;51043;52.406;9.690;2023-07-31T11:00:55;2.35;;;1.80;;
64633;SDS011;51043;52.406;9.690;2023-07-31T11:03:26;2.47;;;1.73;;
64633;SDS011;51043;52.406;9.690;2023-07-31T11:06:07;2.70;;;1.80;;
64633;SDS011;51043;52.406;9.690;2023-07-31T11:08:36;3.42;;;2.15;;
64633;SDS011;51043;52.406;9.690;2023-07-31T11:11:11;2.75;;;1.90;;
64633;SDS011;51043;52.406;9.690;2023-07-31T11:13:42;4.28;;;1.90;;
64633;SDS011;51043;52.406;9.690;2023-07-31T11:16:16;3.47;;;2.00;;
64633;SDS011;51043;52.406;9.690;2023-07-31T11:18:47;3.38;;;1.77;;
64633;SDS011;51043;52.406;9.690;2023-07-31T11:21:17;3.60;;;1.67;;
64633;SDS011;51043;52.406;9.690;2023-07-31T11:23:56;3.20;;;1.80;;
64633;SDS011;51043;52.406;9.690;2023-07-31T11:26:25;3.15;;;1.80;;
64633;SDS011;51043;52.406;9.690;2023-07-31T11:28:53;5.68;;;2.08;;
64633;SDS011;51043;52.406;9.690;2023-07-31T11:31:22;3.13;;;2.00;;
64633;SDS011;51043;52.406;9.690;2023-07-31T11:33:51;4.40;;;2.00;;
64633;SDS011;51043;52.406;9.690;2023-07-31T11:36:33;3.38;;;1.98;;
64633;SDS011;51043;52.406;9.690;2023-07-31T11:39:04;4.97;;;2.17;;
64633;SDS011;51043;52.406;9.690;2023-07-31T11:41:35;3.28;;;1.90;;
64633;SDS011;51043;52.406;9.690;2023-07-31T11:44:07;2.63;;;1.98;;
64633;SDS011;51043;52.406;9.690;2023-07-31T11:46:46;3.08;;;1.80;;
64633;SDS011;51043;52.406;9.690;2023-07-31T11:49:16;1.73;;;1.60;;
64633;SDS011;51043;52.406;9.690;2023-07-31T11:51:44;3.15;;;1.83;;
64633;SDS011;51043;52.406;9.690;2023-07-31T11:54:12;2.10;;;1.70;;
64633;SDS011;51043;52.406;9.690;2023-07-31T11:56:41;6.55;;;2.20;;
64633;SDS011;51043;52.406;9.690;2023-07-31T11:59:11;2.85;;;2.00;;
64633;SDS011;51043;52.406;9.690;2023-07-31T12:01:39;7.78;;;1.88;;
64633;SDS011;51043;52.406;9.690;2023-07-31T12:04:08;4.78;;;2.10;;
64633;SDS011;51043;52.406;9.690;2023-07-31T12:06:37;4.20;;;2.22;;
64633;SDS011;51043;52.406;9.690;2023-07-31T12:09:06;3.80;;;2.00;;
64633;SDS011;51043;52.406;9.690;2023-07-31T12:11:42;2.17;;;1.77;;
64633;SDS011;51043;52.406;9.690;2023-07-31T12:14:19;3.17;;;1.67;;
64633;SDS011;51043;52.406;9.690;2023-07-31T12:16:47;6.88;;;2.00;;
64633;SDS011;51043;52.406;9.690;2023-07-31T12:19:20;2.13;;;1.80;;
64633;SDS011;51043;52.406;9.690;2023-07-31T12:21:50;6.05;;;1.83;;
64633;SDS011;51043;52.406;9.690;2023-07-31T12:24:18;3.15;;;1.88;;
64633;SDS011;51043;52.406;9.690;2023-07-31T12:26:47;3.50;;;1.70;;
64633;SDS011;51043;52.406;9.690;2023-07-31T12:29:16;1.60;;;1.42;;
64633;SDS011;51043;52.406;9.690;2023-07-31T12:31:45;2.80;;;1.67;;
64633;SDS011;51043;52.406;9.690;2023-07-31T12:34:16;1.48;;;1.10;;
64633;SDS011;51043;52.406;9.690;2023-07-31T12:36:47;1.40;;;1.20;;
64633;SDS011;51043;52.406;9.690;2023-07-31T12:39:17;2.03;;;1.10;;
64633;SDS011;51043;52.406;9.690;2023-07-31T12:41:46;1.27;;;1.10;;
64633;SDS011;51043;52.406;9.690;2023-07-31T12:44:14;1.40;;;1.30;;
64633;SDS011;51043;52.406;9.690;2023-07-31T12:46:43;1.75;;;1.25;;
64633;SDS011;51043;52.406;9.690;2023-07-31T12:49:11;2.30;;;1.33;;
64633;SDS011;51043;52.406;9.690;2023-07-31T12:51:39;2.30;;;1.30;;
64633;SDS011;51043;52.406;9.690;2023-07-31T12:54:08;1.77;;;1.10;;
64633;SDS011;51043;52.406;9.690;2023-07-31T12:56:37;1.30;;;1.20;;
64633;SDS011;51043;52.406;9.690;2023-07-31T12:59:08;1.20;;;1.10;;
64633;SDS011;51043;52.406;9.690;2023-07-31T13:01:37;1.42;;;0.90;;
64633;SDS011;51043;52.406;9.690;2023-07-31T13:04:08;1.05;;;0.95;;
64633;SDS011;51043;52.406;9.690;2023-07-31T13:06:36;0.90;;;0.90;;
64633;SDS011;51043;52.406;9.690;2023-07-31T13:09:04;1.85;;;1.02;;
64633;SDS011;51043;52.406;9.690;2023-07-31T13:11:36;1.50;;;1.10;;
64633;SDS011;51043;52.406;9.690;2023-07-31T13:14:05;3.38;;;1.75;;
64633;SDS011;51043;52.406;9.690;2023-07-31T13:16:34;2.78;;;0.80;;
64633;SDS011;51043;52.406;9.690;2023-07-31T13:19:03;3.35;;;1.30;;
64633;SDS011;51043;52.406;9.690;2023-07-31T13:21:34;1.05;;;1.02;;
64633;SDS011;51043;52.406;9.690;2023-07-31T13:24:07;1.08;;;0.95;;
64633;SDS011;51043;52.406;9.690;2023-07-31T13:26:39;1.40;;;0.93;;
64633;SDS011;51043;52.406;9.690;2023-07-31T13:29:07;2.10;;;1.00;;
64633;SDS011;51043;52.406;9.690;2023-07-31T13:31:37;1.20;;;1.10;;
64633;SDS011;51043;52.406;9.690;2023-07-31T13:34:05;1.60;;;1.10;;
64633;SDS011;51043;52.406;9.690;2023-07-31T13:36:39;1.67;;;1.00;;
64633;SDS011;51043;52.406;9.690;2023-07-31T13:39:08;1.45;;;1.35;;
64633;SDS011;51043;52.406;9.690;2023-07-31T13:41:36;0.70;;;0.65;;
64633;SDS011;51043;52.406;9.690;2023-07-31T13:44:06;1.23;;;1.00;;
64633;SDS011;51043;52.406;9.690;2023-07-31T13:46:35;2.30;;;1.40;;
64633;SDS011;51043;52.406;9.690;2023-07-31T13:49:05;1.55;;;1.25;;
64633;SDS011;51043;52.406;9.690;2023-07-31T13:51:38;3.35;;;1.20;;
64633;SDS011;51043;52.406;9.690;2023-07-31T13:54:07;1.73;;;1.13;;
64633;SDS011;51043;52.406;9.690;2023-07-31T13:56:44;1.50;;;0.80;;
64633;SDS011;51043;52.406;9.690;2023-07-31T13:59:23;1.20;;;1.10;;
64633;SDS011;51043;52.406;9.690;2023-07-31T14:01:52;0.82;;;0.82;;
64633;SDS011;51043;52.406;9.690;2023-07-31T14:04:20;1.13;;;0.98;;
64633;SDS011;51043;52.406;9.690;2023-07-31T14:06:49;4.10;;;0.90;;
64633;SDS011;51043;52.406;9.690;2023-07-31T14:09:18;1.13;;;1.00;;
64633;SDS011;51043;52.406;9.690;2023-07-31T14:11:46;1.00;;;0.90;;
64633;SDS011;51043;52.406;9.690;2023-07-31T14:14:15;1.08;;;1.00;;
64633;SDS011;51043;52.406;9.690;2023-07-31T14:16:46;0.80;;;0.80;;
64633;SDS011;51043;52.406;9.690;2023-07-31T14:19:14;2.45;;;0.90;;
64633;SDS011;51043;52.406;9.690;2023-07-31T14:21:43;5.40;;;0.98;;
64633;SDS011;51043;52.406;9.690;2023-07-31T14:24:16;1.00;;;1.00;;
64633;SDS011;51043;52.406;9.690;2023-07-31T14:26:45;2.35;;;1.00;;
64633;SDS011;51043;52.406;9.690;2023-07-31T14:29:13;1.75;;;1.20;;
64633;SDS011;51043;52.406;9.690;2023-07-31T14:31:42;1.63;;;1.30;;
64633;SDS011;51043;52.406;9.690;2023-07-31T14:34:13;1.95;;;1.30;;
64633;SDS011;51043;52.406;9.690;2023-07-31T14:36:43;1.50;;;1.40;;
64633;SDS011;51043;52.406;9.690;2023-07-31T14:39:13;1.40;;;1.30;;
64633;SDS011;51043;52.406;9.690;2023-07-31T14:41:41;3.03;;;1.75;;
64633;SDS011;51043;52.406;9.690;2023-07-31T14:44:12;2.58;;;1.80;;
64633;SDS011;51043;52.406;9.690;2023-07-31T14:46:40;2.30;;;2.10;;
64633;SDS011;51043;52.406;9.690;2023-07-31T14:49:08;3.15;;;1.92;;
64633;SDS011;51043;52.406;9.690;2023-07-31T14:51:38;1.70;;;1.60;;
64633;SDS011;51043;52.406;9.690;2023-07-31T14:54:09;2.25;;;1.85;;
64633;SDS011;51043;52.406;9.690;2023-07-31T14:56:38;3.28;;;2.33;;
64633;SDS011;51043;52.406;9.690;2023-07-31T14:59:06;2.15;;;1.95;;
64633;SDS011;51043;52.406;9.690;2023-07-31T15:01:36;3.33;;;2.10;;